createdAt,value
2022-08-12T00:02:02.953Z,46.55
2022-08-12T00:04:25.894Z,46.54
2022-08-12T00:06:52.309Z,46.35
2022-08-12T00:09:20.255Z,46.64
2022-08-12T00:11:49.589Z,46.50
2022-08-12T00:14:16.195Z,46.40
2022-08-12T00:16:42.611Z,46.91
2022-08-12T00:19:09.065Z,46.50
2022-08-12T00:21:35.935Z,46.68
2022-08-12T00:24:02.414Z,46.54
2022-08-12T00:26:28.779Z,46.62
2022-08-12T00:28:55.147Z,46.49
2022-08-12T00:31:21.521Z,46.81
2022-08-12T00:33:51.905Z,46.58
2022-08-12T00:36:34.840Z,46.54
2022-08-12T00:39:02.701Z,46.58
2022-08-12T00:41:29.467Z,46.50
2022-08-12T00:43:56.068Z,46.60
2022-08-12T00:46:22.761Z,46.30
2022-08-12T00:48:49.306Z,46.30
2022-08-12T00:51:15.740Z,46.68
2022-08-12T00:53:42.679Z,46.58
2022-08-12T00:56:09.115Z,46.58
2022-08-12T00:58:35.526Z,46.67
2022-08-12T01:01:03.114Z,46.38
2022-08-12T01:03:29.613Z,46.65
2022-08-12T01:05:56.402Z,46.66
2022-08-12T01:08:23.160Z,46.37
2022-08-12T01:10:49.646Z,46.67
2022-08-12T01:13:19.535Z,46.76
2022-08-12T01:15:46.558Z,46.73
2022-08-12T01:18:12.987Z,46.46
2022-08-12T01:20:39.666Z,46.57
2022-08-12T01:23:06.782Z,46.32
2022-08-12T01:25:33.368Z,46.68
2022-08-12T01:27:59.817Z,46.71
2022-08-12T01:30:26.306Z,46.49
2022-08-12T01:32:52.738Z,46.71
2022-08-12T01:35:19.464Z,46.75
2022-08-12T01:37:45.964Z,46.76
2022-08-12T01:40:32.028Z,46.16
2022-08-12T01:42:59.140Z,46.70
2022-08-12T01:45:25.585Z,46.85
2022-08-12T01:47:52.124Z,46.28
2022-08-12T01:50:18.509Z,46.63
2022-08-12T01:52:45.014Z,46.85
2022-08-12T01:55:11.580Z,46.88
2022-08-12T01:57:58.194Z,46.54
2022-08-12T02:00:35.491Z,46.85
2022-08-12T02:03:12.082Z,46.85
2022-08-12T02:05:38.365Z,46.77
2022-08-12T02:08:04.738Z,47.15
2022-08-12T02:10:51.436Z,46.88
2022-08-12T02:13:17.435Z,47.03
2022-08-12T02:16:03.840Z,46.83
2022-08-12T02:18:30.342Z,46.60
2022-08-12T02:20:57.151Z,47.01
2022-08-12T02:23:23.705Z,47.12
2022-08-12T02:25:50.110Z,47.38
2022-08-12T02:28:16.539Z,46.90
2022-08-12T02:30:42.919Z,46.89
2022-08-12T02:33:09.346Z,47.18
2022-08-12T02:35:35.690Z,46.90
2022-08-12T02:38:02.419Z,47.45
2022-08-12T02:40:28.811Z,47.11
2022-08-12T02:42:55.466Z,47.36
2022-08-12T02:45:21.789Z,47.36
2022-08-12T02:48:00.386Z,47.44
2022-08-12T02:50:27.536Z,47.34
2022-08-12T02:52:54.025Z,47.02
2022-08-12T02:55:33.935Z,47.64
2022-08-12T02:58:04.184Z,47.22
2022-08-12T03:00:33.947Z,47.52
2022-08-12T03:03:00.313Z,47.49
2022-08-12T03:05:26.795Z,47.25
2022-08-12T03:07:59.509Z,47.51
2022-08-12T03:10:37.205Z,47.34
2022-08-12T03:13:04.481Z,47.28
2022-08-12T03:15:30.814Z,47.29
2022-08-12T03:18:25.870Z,47.49
2022-08-12T03:20:43.543Z,47.62
2022-08-12T03:23:09.962Z,47.41
2022-08-12T03:25:45.709Z,47.35
2022-08-12T03:28:23.552Z,47.67
2022-08-12T03:30:54.776Z,47.23
2022-08-12T03:33:22.957Z,47.22
2022-08-12T03:35:49.338Z,47.47
2022-08-12T03:38:15.633Z,47.31
2022-08-12T03:40:41.939Z,47.39
2022-08-12T03:43:08.337Z,47.45
2022-08-12T03:45:42.935Z,47.55
2022-08-12T03:48:19.156Z,47.79
2022-08-12T03:50:45.853Z,47.71
2022-08-12T03:53:12.178Z,48.01
2022-08-12T03:55:38.627Z,48.03
2022-08-12T03:58:05.365Z,48.08
2022-08-12T04:00:31.877Z,47.87
2022-08-12T04:02:59.537Z,47.87
2022-08-12T04:05:32.846Z,48.11
2022-08-12T04:08:12.410Z,47.59
2022-08-12T04:10:39.011Z,47.67
2022-08-12T04:13:05.711Z,47.99
2022-08-12T04:15:32.195Z,47.61
2022-08-12T04:18:07.611Z,47.93
2022-08-12T04:20:34.259Z,47.79
2022-08-12T04:23:00.786Z,47.69
2022-08-12T04:25:27.269Z,47.91
2022-08-12T04:27:53.730Z,47.92
2022-08-12T04:30:32.345Z,48.07
2022-08-12T04:33:00.253Z,47.75
2022-08-12T04:35:26.680Z,47.74
2022-08-12T04:37:59.295Z,47.90
2022-08-12T04:40:29.001Z,47.67
2022-08-12T04:42:55.684Z,47.72
2022-08-12T04:45:22.572Z,48.04
2022-08-12T04:47:49.206Z,47.78
2022-08-12T04:50:34.716Z,47.82
2022-08-12T04:53:02.170Z,47.79
2022-08-12T04:55:28.512Z,48.14
2022-08-12T04:57:54.874Z,48.22
2022-08-12T05:00:21.525Z,47.66
2022-08-12T05:02:48.072Z,47.88
2022-08-12T05:05:14.581Z,47.79
2022-08-12T05:07:54.516Z,47.75
2022-08-12T05:10:21.909Z,47.89
2022-08-12T05:13:00.830Z,48.15
2022-08-12T05:15:29.438Z,48.26
2022-08-12T05:18:00.019Z,48.10
2022-08-12T05:20:29.461Z,48.31
2022-08-12T05:22:57.984Z,47.94
2022-08-12T05:25:26.621Z,48.13
2022-08-12T05:27:55.344Z,48.12
2022-08-12T05:30:25.259Z,47.99
2022-08-12T05:32:51.593Z,47.73
2022-08-12T05:35:21.858Z,47.96
2022-08-12T05:37:49.042Z,47.89
2022-08-12T05:40:15.383Z,47.82
2022-08-12T05:42:42.217Z,47.96
2022-08-12T05:45:08.746Z,48.01
2022-08-12T05:47:36.673Z,47.97
2022-08-12T05:50:20.251Z,47.79
2022-08-12T05:52:48.107Z,46.91
2022-08-12T05:55:14.778Z,47.05
2022-08-12T05:57:41.159Z,46.86
2022-08-12T06:00:07.543Z,46.99
2022-08-12T06:02:33.870Z,47.38
2022-08-12T06:05:00.228Z,47.01
2022-08-12T06:08:01.310Z,47.00
2022-08-12T06:10:13.158Z,47.14
2022-08-12T06:12:39.806Z,47.28
2022-08-12T06:15:06.367Z,47.52
2022-08-12T06:17:32.839Z,47.92
2022-08-12T06:20:28.773Z,47.76
2022-08-12T06:22:45.591Z,47.91
2022-08-12T06:25:18.576Z,47.79
2022-08-12T06:28:06.106Z,48.05
2022-08-12T06:30:37.985Z,48.25
2022-08-12T06:33:18.521Z,48.26
2022-08-12T06:35:49.773Z,48.14
2022-08-12T06:38:16.571Z,48.30
2022-08-12T06:40:43.031Z,48.06
2022-08-12T06:43:09.459Z,48.20
2022-08-12T06:45:45.990Z,48.21
2022-08-12T06:48:13.141Z,48.50
2022-08-12T06:50:40.301Z,48.31
2022-08-12T06:53:06.860Z,48.75
2022-08-12T06:55:33.196Z,48.42
2022-08-12T06:58:08.090Z,48.54
2022-08-12T07:00:36.707Z,48.25
2022-08-12T07:03:22.821Z,48.58
2022-08-12T07:05:50.858Z,48.57
2022-08-12T07:08:17.685Z,48.75
2022-08-12T07:10:45.568Z,48.38
2022-08-12T07:13:12.210Z,48.69
2022-08-12T07:15:38.515Z,48.45
2022-08-12T07:18:04.915Z,48.46
2022-08-12T07:20:51.841Z,48.85
2022-08-12T07:23:17.852Z,48.53
2022-08-12T07:25:44.353Z,48.56
2022-08-12T07:28:16.423Z,48.56
2022-08-12T07:30:43.777Z,48.57
2022-08-12T07:33:10.137Z,48.88
2022-08-12T07:35:36.675Z,48.72
2022-08-12T07:38:03.088Z,48.92
2022-08-12T07:40:29.670Z,49.04
2022-08-12T07:42:56.011Z,48.97
2022-08-12T07:45:22.389Z,48.92
2022-08-12T07:47:48.917Z,48.69
2022-08-12T07:50:18.875Z,48.70
2022-08-12T07:52:47.907Z,48.52
2022-08-12T07:55:14.324Z,48.89
2022-08-12T07:57:40.640Z,48.56
2022-08-12T08:00:06.998Z,48.36
2022-08-12T08:02:34.006Z,48.53
2022-08-12T08:05:00.402Z,48.85
2022-08-12T08:07:27.737Z,49.02
2022-08-12T08:09:58.624Z,48.66
2022-08-12T08:12:26.031Z,48.71
2022-08-12T08:14:52.478Z,49.11
2022-08-12T08:17:18.962Z,48.71
2022-08-12T08:20:01.927Z,48.77
2022-08-12T08:22:41.327Z,49.30
2022-08-12T08:25:35.191Z,49.09
2022-08-12T08:27:55.435Z,49.07
2022-08-12T08:30:22.460Z,49.18
2022-08-12T08:32:48.829Z,48.77
2022-08-12T08:35:15.221Z,49.06
2022-08-12T08:37:42.022Z,49.00
2022-08-12T08:40:08.598Z,48.86
2022-08-12T08:42:35.002Z,49.04
2022-08-12T08:45:01.348Z,49.07
2022-08-12T08:47:27.727Z,49.02
2022-08-12T08:49:54.017Z,48.93
2022-08-12T08:52:35.216Z,49.09
2022-08-12T08:55:06.401Z,48.83
2022-08-12T08:57:43.712Z,48.68
2022-08-12T09:00:10.911Z,48.73
2022-08-12T09:02:42.190Z,48.92
2022-08-12T09:05:25.465Z,48.68
2022-08-12T09:08:12.142Z,48.73
2022-08-12T09:10:38.654Z,48.89
2022-08-12T09:13:06.757Z,48.64
2022-08-12T09:18:30.767Z,48.54
2022-08-12T09:21:06.406Z,48.96
2022-08-12T09:23:58.463Z,48.41
2022-08-12T09:26:21.043Z,48.63
2022-08-12T09:28:54.693Z,48.78
2022-08-12T09:32:04.310Z,48.59
2022-08-12T09:34:31.064Z,48.85
2022-08-12T09:37:00.585Z,48.48
2022-08-12T09:40:04.341Z,48.77
2022-08-12T09:42:41.192Z,48.94
2022-08-12T09:45:18.575Z,48.38
2022-08-12T09:47:45.945Z,48.83
2022-08-12T09:50:25.854Z,48.66
2022-08-12T09:52:54.400Z,48.57
2022-08-12T09:56:05.284Z,48.58
2022-08-12T09:58:57.242Z,48.86
2022-08-12T10:00:56.213Z,48.58
2022-08-12T10:03:32.022Z,48.37
2022-08-12T10:06:19.500Z,48.77
2022-08-12T10:08:52.314Z,48.54
2022-08-12T10:11:20.572Z,48.45
2022-08-12T10:13:47.293Z,48.66
2022-08-12T10:16:22.530Z,48.79
2022-08-12T10:18:52.265Z,48.77
2022-08-12T10:21:19.063Z,48.72
2022-08-12T10:23:46.157Z,48.78
2022-08-12T10:26:37.278Z,48.90
2022-08-12T10:29:02.864Z,48.99
2022-08-12T10:32:19.707Z,48.62
2022-08-12T10:34:24.025Z,48.65
2022-08-12T10:36:52.745Z,48.48
2022-08-12T10:40:01.359Z,48.24
2022-08-12T10:42:05.728Z,48.30
2022-08-12T10:44:32.130Z,48.16
2022-08-12T10:47:01.980Z,48.13
2022-08-12T10:50:02.822Z,48.17
2022-08-12T10:52:37.799Z,48.05
2022-08-12T10:55:06.835Z,48.34
2022-08-12T10:58:14.612Z,48.41
2022-08-12T11:00:35.085Z,48.26
2022-08-12T11:04:28.131Z,48.50
2022-08-12T11:07:05.911Z,48.39
2022-08-12T11:08:42.877Z,48.13
2022-08-12T11:11:13.369Z,47.97
2022-08-12T11:13:46.816Z,47.88
2022-08-12T11:16:21.612Z,48.06
2022-08-12T11:18:55.238Z,47.95
2022-08-12T11:21:56.094Z,47.96
2022-08-12T11:24:30.662Z,48.27
2022-08-12T11:29:23.776Z,48.01
2022-08-12T11:32:02.011Z,48.17
2022-08-12T11:34:52.622Z,48.15
2022-08-12T11:37:25.682Z,48.27
2022-08-12T11:42:33.294Z,48.10
2022-08-12T11:44:59.640Z,48.53
2022-08-12T11:47:26.082Z,48.42
2022-08-12T11:49:52.795Z,48.40
2022-08-12T11:52:54.919Z,48.04
2022-08-12T11:55:05.490Z,48.66
2022-08-12T11:58:13.080Z,48.33
2022-08-12T12:03:04.905Z,48.41
2022-08-12T12:05:41.659Z,48.25
2022-08-12T12:08:38.083Z,48.49
2022-08-12T12:10:59.319Z,48.48
2022-08-12T12:14:08.818Z,48.47
2022-08-12T12:16:12.461Z,48.15
2022-08-12T12:18:38.860Z,48.30
2022-08-12T12:21:05.486Z,48.49
2022-08-12T12:23:36.393Z,48.41
2022-08-12T12:26:06.793Z,48.21
2022-08-12T12:28:36.812Z,48.39
2022-08-12T12:31:04.633Z,48.63
2022-08-12T12:33:57.192Z,48.46
2022-08-12T12:36:29.623Z,48.31
2022-08-12T12:38:56.681Z,48.66
2022-08-12T12:42:40.679Z,48.63
2022-08-12T12:44:13.372Z,48.23
2022-08-12T12:46:51.951Z,48.08
2022-08-12T12:49:21.244Z,48.55
2022-08-12T12:52:19.293Z,48.46
2022-08-12T12:54:39.551Z,48.37
2022-08-12T12:57:06.718Z,48.50
2022-08-12T12:59:56.029Z,48.22
2022-08-12T13:02:31.345Z,48.62
2022-08-12T13:04:58.520Z,48.20
2022-08-12T13:07:49.325Z,48.51
2022-08-12T13:10:11.358Z,48.61
2022-08-12T13:12:40.045Z,48.37
2022-08-12T13:15:06.862Z,48.25
2022-08-12T13:18:02.373Z,48.24
2022-08-12T13:20:37.461Z,48.57
2022-08-12T13:23:36.083Z,48.27
2022-08-12T13:25:52.645Z,48.61
2022-08-12T13:28:20.065Z,48.71
2022-08-12T13:30:48.446Z,48.42
2022-08-12T13:33:18.929Z,48.47
2022-08-12T13:36:06.244Z,48.36
2022-08-12T13:38:34.958Z,48.47
2022-08-12T13:41:01.870Z,48.28
2022-08-12T13:43:40.614Z,48.32
2022-08-12T13:46:08.165Z,48.65
2022-08-12T13:48:44.710Z,48.77
2022-08-12T13:51:11.840Z,48.73
2022-08-12T13:53:54.883Z,48.24
2022-08-12T13:56:24.572Z,48.47
2022-08-12T13:58:56.270Z,48.65
2022-08-12T14:01:25.062Z,48.51
2022-08-12T14:03:52.064Z,48.73
2022-08-12T14:06:19.948Z,48.82
2022-08-12T14:08:49.738Z,48.49
2022-08-12T14:11:16.466Z,48.77
2022-08-12T14:14:05.948Z,48.84
2022-08-12T14:16:37.525Z,48.84
2022-08-12T14:19:21.908Z,48.91
2022-08-12T14:22:00.914Z,48.53
2022-08-12T14:24:31.024Z,48.72
2022-08-12T14:26:57.501Z,48.53
2022-08-12T14:29:56.220Z,48.87
2022-08-12T14:32:16.797Z,48.84
2022-08-12T14:34:44.792Z,48.60
2022-08-12T14:37:54.775Z,48.49
2022-08-12T14:39:57.568Z,48.87
2022-08-12T14:42:26.109Z,48.54
2022-08-12T14:44:57.541Z,49.01
2022-08-12T14:47:26.617Z,48.56
2022-08-12T14:50:41.676Z,48.94
2022-08-12T14:54:40.512Z,48.79
2022-08-12T14:58:14.955Z,48.87
2022-08-12T15:00:44.714Z,48.97
2022-08-12T15:03:17.219Z,48.61
2022-08-12T15:06:06.365Z,48.87
2022-08-12T15:08:29.929Z,48.56
2022-08-12T15:10:57.977Z,48.54
2022-08-12T15:13:24.357Z,48.63
2022-08-12T15:15:52.081Z,48.88
2022-08-12T15:18:21.064Z,48.60
2022-08-12T15:20:48.413Z,48.79
2022-08-12T15:23:17.822Z,48.61
2022-08-12T15:25:47.738Z,48.94
2022-08-12T15:28:21.370Z,48.51
2022-08-12T15:30:48.750Z,48.59
2022-08-12T15:33:20.922Z,49.11
2022-08-12T15:35:50.262Z,48.94
2022-08-12T15:38:19.987Z,48.93
2022-08-12T15:40:48.551Z,48.91
2022-08-12T15:43:51.522Z,49.04
2022-08-12T15:46:02.376Z,48.66
2022-08-12T15:48:30.528Z,48.78
2022-08-12T15:50:57.017Z,48.68
2022-08-12T15:53:24.009Z,48.72
2022-08-12T15:55:53.541Z,48.69
2022-08-12T15:58:27.125Z,49.07
2022-08-12T16:00:53.845Z,48.75
2022-08-12T16:03:25.693Z,48.70
2022-08-12T16:06:11.605Z,49.10
2022-08-12T16:08:38.615Z,48.89
2022-08-12T16:11:07.253Z,48.76
2022-08-12T16:13:44.053Z,48.81
2022-08-12T16:16:23.916Z,48.95
2022-08-12T16:18:51.563Z,48.81
2022-08-12T16:21:52.391Z,49.03
2022-08-12T16:24:04.192Z,49.11
2022-08-12T16:26:32.753Z,48.73
2022-08-12T16:29:15.124Z,48.97
2022-08-12T16:31:42.694Z,49.10
2022-08-12T16:34:10.780Z,49.34
2022-08-12T16:36:51.947Z,48.62
2022-08-12T16:39:19.835Z,49.18
2022-08-12T16:41:46.549Z,49.12
2022-08-12T16:44:12.951Z,48.87
2022-08-12T16:46:58.131Z,49.18
2022-08-12T16:49:24.718Z,49.15
2022-08-12T16:51:51.799Z,48.67
2022-08-12T16:54:18.183Z,49.39
2022-08-12T16:56:51.202Z,49.09
2022-08-12T16:59:23.933Z,49.33
2022-08-12T17:01:50.468Z,48.75
2022-08-12T17:04:18.150Z,49.32
2022-08-12T17:06:44.885Z,48.97
2022-08-12T17:09:17.236Z,49.18
2022-08-12T17:11:44.780Z,49.18
2022-08-12T17:14:13.226Z,48.97
2022-08-12T17:16:39.540Z,49.20
2022-08-12T17:19:09.158Z,49.34
2022-08-12T17:21:40.118Z,49.38
2022-08-12T17:24:14.994Z,49.12
2022-08-12T17:26:42.103Z,48.94
2022-08-12T17:29:10.280Z,49.13
2022-08-12T17:32:00.153Z,49.27
2022-08-12T17:34:23.112Z,49.25
2022-08-12T17:36:50.013Z,48.96
2022-08-12T17:39:16.604Z,49.23
2022-08-12T17:41:57.192Z,49.00
2022-08-12T17:44:23.951Z,49.21
2022-08-12T17:46:53.815Z,49.29
2022-08-12T17:50:02.063Z,49.20
2022-08-12T17:52:06.935Z,48.82
2022-08-12T17:54:33.585Z,49.26
2022-08-12T17:57:00.378Z,49.33
2022-08-12T17:59:47.979Z,48.80
2022-08-12T18:02:14.118Z,49.25
2022-08-12T18:04:40.431Z,49.01
2022-08-12T18:07:27.995Z,48.91
2022-08-12T18:09:56.294Z,49.32
2022-08-12T18:12:26.855Z,49.05
2022-08-12T18:14:54.150Z,49.24
2022-08-12T18:17:20.502Z,49.07
2022-08-12T18:20:05.505Z,48.92
2022-08-12T18:22:33.614Z,49.33
2022-08-12T18:25:02.319Z,48.90
2022-08-12T18:27:44.776Z,49.13
2022-08-12T18:30:13.589Z,48.87
2022-08-12T18:32:58.410Z,49.21
2022-08-12T18:35:46.366Z,49.03
2022-08-12T18:38:12.408Z,48.91
2022-08-12T18:40:42.977Z,49.18
2022-08-12T18:43:15.183Z,48.93
2022-08-12T18:45:46.951Z,49.05
2022-08-12T18:48:22.983Z,48.92
2022-08-12T18:50:50.160Z,49.04
2022-08-12T18:54:04.893Z,49.35
2022-08-12T18:56:03.031Z,48.89
2022-08-12T18:58:30.201Z,48.98
2022-08-12T19:00:57.227Z,49.18
2022-08-12T19:03:39.894Z,49.23
2022-08-12T19:06:07.347Z,48.98
2022-08-12T19:08:33.934Z,48.97
2022-08-12T19:11:00.357Z,49.29
2022-08-12T19:13:32.984Z,49.17
2022-08-12T19:16:01.428Z,49.27
2022-08-12T19:18:29.851Z,49.41
2022-08-12T19:20:58.388Z,49.17
2022-08-12T19:23:24.941Z,48.94
2022-08-12T19:26:02.775Z,49.32
2022-08-12T19:28:34.416Z,49.20
2022-08-12T19:31:02.503Z,49.08
2022-08-12T19:33:29.455Z,49.15
2022-08-12T19:36:07.830Z,49.08
2022-08-12T19:38:46.863Z,48.95
2022-08-12T19:41:23.061Z,49.33
2022-08-12T19:44:00.558Z,49.15
2022-08-12T19:46:35.946Z,49.30
2022-08-12T19:49:04.139Z,49.21
2022-08-12T19:51:30.754Z,48.93
2022-08-12T19:53:59.778Z,49.53
2022-08-12T19:56:26.077Z,49.42
2022-08-12T19:58:52.430Z,49.19
2022-08-12T20:01:20.274Z,49.55
2022-08-12T20:03:57.663Z,49.25
2022-08-12T20:06:27.678Z,49.25
2022-08-12T20:08:57.154Z,49.52
2022-08-12T20:12:12.719Z,49.53
2022-08-12T20:14:11.907Z,49.67
2022-08-12T20:16:57.691Z,49.56
2022-08-12T20:19:24.685Z,49.40
2022-08-12T20:22:14.206Z,49.69
2022-08-12T20:24:41.113Z,49.61
2022-08-12T20:27:28.618Z,49.59
2022-08-12T20:29:54.609Z,49.41
2022-08-12T20:32:29.728Z,49.42
2022-08-12T20:35:10.263Z,49.73
2022-08-12T20:38:06.699Z,49.46
2022-08-12T20:40:23.477Z,49.56
2022-08-12T20:42:52.272Z,49.43
2022-08-12T20:45:18.819Z,49.74
2022-08-12T20:47:46.834Z,49.37
2022-08-12T20:50:21.353Z,49.78
2022-08-12T20:52:53.916Z,49.45
2022-08-12T20:55:21.182Z,49.92
2022-08-12T20:58:03.052Z,49.81
2022-08-12T21:00:31.247Z,49.43
2022-08-12T21:02:59.289Z,49.56
2022-08-12T21:05:25.609Z,49.84
2022-08-12T21:08:12.218Z,49.80
2022-08-12T21:10:38.750Z,49.67
2022-08-12T21:13:19.951Z,49.90
2022-08-12T21:15:54.588Z,49.69
2022-08-12T21:18:28.966Z,49.88
2022-08-12T21:20:58.030Z,49.63
2022-08-12T21:23:25.643Z,50.08
2022-08-12T21:26:01.577Z,49.79
2022-08-12T21:28:31.335Z,49.89
2022-08-12T21:32:35.152Z,49.69
2022-08-12T21:33:58.261Z,49.84
2022-08-12T21:36:32.273Z,49.77
2022-08-12T21:39:01.842Z,50.04
2022-08-12T21:41:44.675Z,49.97
2022-08-12T21:44:24.272Z,49.99
2022-08-12T21:47:03.306Z,49.59
2022-08-12T21:49:53.786Z,49.78
2022-08-12T21:52:17.155Z,49.73
2022-08-12T21:54:43.605Z,50.09
2022-08-12T21:57:10.109Z,50.07
2022-08-12T21:59:39.445Z,49.80
2022-08-12T22:02:05.765Z,49.96
2022-08-12T22:04:32.069Z,49.98
2022-08-12T22:06:59.438Z,50.13
2022-08-12T22:09:25.804Z,50.00
2022-08-12T22:11:58.575Z,49.74
2022-08-12T22:14:27.113Z,49.95
2022-08-12T22:16:53.768Z,50.15
2022-08-12T22:19:21.163Z,50.01
2022-08-12T22:21:52.520Z,50.06
2022-08-12T22:24:26.381Z,50.10
2022-08-12T22:26:57.071Z,50.27
2022-08-12T22:29:23.700Z,49.75
2022-08-12T22:31:53.275Z,49.82
2022-08-12T22:34:19.671Z,49.87
2022-08-12T22:36:46.055Z,50.18
2022-08-12T22:39:16.194Z,50.05
2022-08-12T22:41:42.748Z,49.72
2022-08-12T22:44:09.086Z,50.07
2022-08-12T22:46:36.667Z,49.92
2022-08-12T22:49:03.452Z,50.23
2022-08-12T22:51:42.958Z,49.94
2022-08-12T22:54:34.955Z,49.82
2022-08-12T22:57:03.294Z,50.07
2022-08-12T22:59:51.090Z,50.19
2022-08-12T23:02:16.055Z,49.99
2022-08-12T23:04:42.506Z,49.98
2022-08-12T23:07:09.474Z,49.93
2022-08-12T23:09:48.271Z,50.06
2022-08-12T23:12:22.439Z,50.34
2022-08-12T23:14:51.413Z,50.54
2022-08-12T23:17:40.177Z,50.58
2022-08-12T23:20:04.542Z,50.12
2022-08-12T23:22:36.707Z,50.20
2022-08-12T23:25:03.623Z,50.06
2022-08-12T23:27:44.319Z,50.02
2022-08-12T23:30:19.152Z,50.30
2022-08-12T23:32:54.739Z,50.54
2022-08-12T23:35:45.889Z,50.33
2022-08-12T23:38:12.591Z,50.38
2022-08-12T23:40:56.865Z,50.38
2022-08-12T23:43:23.390Z,50.35
2022-08-12T23:46:00.433Z,50.33
2022-08-12T23:48:31.223Z,50.49
2022-08-12T23:50:58.216Z,50.50
2022-08-12T23:53:24.737Z,50.29
2022-08-12T23:55:58.892Z,50.68
2022-08-12T23:58:26.664Z,50.22
